sensor_id;sensor_type;location;lat;lon;timestamp;pressure;altitude;pressure_sealevel;temperature;humidity
59987;BME280;46181;51.498;5.392;2023-12-14T00:01:23;100759.4;;;12.98;66.17969
59987;BME280;46181;51.498;5.392;2023-12-14T00:05:53;100766;;;12.93;66.25293
59987;BME280;46181;51.498;5.392;2023-12-14T00:10:23;100773.3;;;12.9;66.31445
59987;BME280;46181;51.498;5.392;2023-12-14T00:14:53;100777.6;;;12.84;66.08984
59987;BME280;46181;51.498;5.392;2023-12-14T00:19:23;100786.3;;;12.77;66.05762
59987;BME280;46181;51.498;5.392;2023-12-14T00:23:53;100799.8;;;12.76;66.31641
59987;BME280;46181;51.498;5.392;2023-12-14T00:28:23;100804.2;;;12.74;66.29004
59987;BME280;46181;51.498;5.392;2023-12-14T00:32:53;100821.2;;;12.65;66.07422
59987;BME280;46181;51.498;5.392;2023-12-14T00:37:23;100835.9;;;12.57;66.02832
59987;BME280;46181;51.498;5.392;2023-12-14T00:41:53;100848.2;;;12.47;65.91211
59987;BME280;46181;51.498;5.392;2023-12-14T00:46:23;100853.7;;;12.42;66.17578
59987;BME280;46181;51.498;5.392;2023-12-14T00:50:53;100868;;;12.35;66.06152
59987;BME280;46181;51.498;5.392;2023-12-14T00:55:23;100878.5;;;12.27;66.07422
59987;BME280;46181;51.498;5.392;2023-12-14T00:59:53;100884.6;;;12.17;65.77539
59987;BME280;46181;51.498;5.392;2023-12-14T01:04:23;100881;;;12.01;65.68457
59987;BME280;46181;51.498;5.392;2023-12-14T01:08:53;100888.2;;;11.91;65.7373
59987;BME280;46181;51.498;5.392;2023-12-14T01:13:23;100898.1;;;11.84;66.00879
59987;BME280;46181;51.498;5.392;2023-12-14T01:17:53;100907.6;;;11.82;66.16211
59987;BME280;46181;51.498;5.392;2023-12-14T01:22:23;100919.5;;;11.82;65.91602
59987;BME280;46181;51.498;5.392;2023-12-14T01:26:53;100935.3;;;11.78;66.02148
59987;BME280;46181;51.498;5.392;2023-12-14T01:31:23;100943.9;;;11.75;65.9834
59987;BME280;46181;51.498;5.392;2023-12-14T01:35:53;100954;;;11.71;65.97656
59987;BME280;46181;51.498;5.392;2023-12-14T01:40:25;100960.7;;;11.66;65.95801
59987;BME280;46181;51.498;5.392;2023-12-14T01:44:53;100967.4;;;11.69;66.14258
59987;BME280;46181;51.498;5.392;2023-12-14T01:49:23;100972.7;;;11.68;65.9502
59987;BME280;46181;51.498;5.392;2023-12-14T01:53:53;100979;;;11.67;66.14063
59987;BME280;46181;51.498;5.392;2023-12-14T01:58:23;100989.8;;;11.7;66.1123
59987;BME280;46181;51.498;5.392;2023-12-14T02:02:53;100995.2;;;11.69;65.86133
59987;BME280;46181;51.498;5.392;2023-12-14T02:07:23;101005;;;11.66;65.85645
59987;BME280;46181;51.498;5.392;2023-12-14T02:11:53;101012.1;;;11.62;65.77148
59987;BME280;46181;51.498;5.392;2023-12-14T02:16:23;101025.7;;;11.56;65.75293
59987;BME280;46181;51.498;5.392;2023-12-14T02:20:53;101034.3;;;11.53;65.82617
59987;BME280;46181;51.498;5.392;2023-12-14T02:25:23;101044.6;;;11.52;65.94824
59987;BME280;46181;51.498;5.392;2023-12-14T02:29:53;101047.5;;;11.49;65.79785
59987;BME280;46181;51.498;5.392;2023-12-14T02:34:23;101047.8;;;11.48;65.72754
59987;BME280;46181;51.498;5.392;2023-12-14T02:38:53;101060.6;;;11.43;65.58496
59987;BME280;46181;51.498;5.392;2023-12-14T02:43:23;101074.3;;;11.43;65.77539
59987;BME280;46181;51.498;5.392;2023-12-14T02:47:53;101088.2;;;11.44;65.7002
59987;BME280;46181;51.498;5.392;2023-12-14T02:52:23;101091;;;11.41;65.75098
59987;BME280;46181;51.498;5.392;2023-12-14T02:56:53;101105;;;11.37;65.47559
59987;BME280;46181;51.498;5.392;2023-12-14T03:01:23;101099.9;;;11.31;65.48926
59987;BME280;46181;51.498;5.392;2023-12-14T03:05:54;101111.1;;;11.28;65.39453
59987;BME280;46181;51.498;5.392;2023-12-14T03:10:23;101116.1;;;11.26;65.52637
59987;BME280;46181;51.498;5.392;2023-12-14T03:14:53;101124.4;;;11.28;65.67578
59987;BME280;46181;51.498;5.392;2023-12-14T03:19:23;101120;;;11.28;65.6416
59987;BME280;46181;51.498;5.392;2023-12-14T03:23:53;101126.2;;;11.3;65.63477
59987;BME280;46181;51.498;5.392;2023-12-14T03:28:23;101126.1;;;11.31;65.55859
59987;BME280;46181;51.498;5.392;2023-12-14T03:32:53;101132.3;;;11.31;65.50195
59987;BME280;46181;51.498;5.392;2023-12-14T03:37:23;101131.9;;;11.3;65.40918
59987;BME280;46181;51.498;5.392;2023-12-14T03:41:53;101137.7;;;11.23;65.19629
59987;BME280;46181;51.498;5.392;2023-12-14T03:46:23;101153.6;;;11.2;65.33691
59987;BME280;46181;51.498;5.392;2023-12-14T03:50:53;101155;;;11.16;65.10645
59987;BME280;46181;51.498;5.392;2023-12-14T03:55:23;101160.5;;;11.1;65.12109
59987;BME280;46181;51.498;5.392;2023-12-14T03:59:53;101167.3;;;11.09;65.28711
59987;BME280;46181;51.498;5.392;2023-12-14T04:04:23;101167.8;;;11.09;65.33203
59987;BME280;46181;51.498;5.392;2023-12-14T04:08:53;101171.5;;;11.03;65.16797
59987;BME280;46181;51.498;5.392;2023-12-14T04:13:23;101168.5;;;11.04;65.0332
59987;BME280;46181;51.498;5.392;2023-12-14T04:17:53;101165.7;;;11.02;65.09668
59987;BME280;46181;51.498;5.392;2023-12-14T04:22:23;101171.2;;;11.01;65.01758
59987;BME280;46181;51.498;5.392;2023-12-14T04:26:53;101188.8;;;11.03;65.22266
59987;BME280;46181;51.498;5.392;2023-12-14T04:31:23;101202.5;;;11.05;65.00098
59987;BME280;46181;51.498;5.392;2023-12-14T04:35:53;101212;;;11.05;65.03418
59987;BME280;46181;51.498;5.392;2023-12-14T04:40:23;101220.1;;;11.03;64.94141
59987;BME280;46181;51.498;5.392;2023-12-14T04:44:53;101235.3;;;11.01;64.79297
59987;BME280;46181;51.498;5.392;2023-12-14T04:49:23;101247.1;;;10.98;64.6875
59987;BME280;46181;51.498;5.392;2023-12-14T04:53:53;101255.1;;;10.99;64.8916
59987;BME280;46181;51.498;5.392;2023-12-14T04:58:23;101257.1;;;11.04;64.99902
59987;BME280;46181;51.498;5.392;2023-12-14T05:02:54;101263.1;;;11.07;64.90234
59987;BME280;46181;51.498;5.392;2023-12-14T05:07:23;101276.5;;;11.05;64.78809
59987;BME280;46181;51.498;5.392;2023-12-14T05:11:53;101288.1;;;11.06;64.82227
59987;BME280;46181;51.498;5.392;2023-12-14T05:16:25;101294.8;;;11.03;64.77344
59987;BME280;46181;51.498;5.392;2023-12-14T05:20:53;101305.5;;;11.04;64.70703
59987;BME280;46181;51.498;5.392;2023-12-14T05:25:23;101315.8;;;11.07;64.86816
59987;BME280;46181;51.498;5.392;2023-12-14T05:29:53;101320.2;;;11.11;64.93164
59987;BME280;46181;51.498;5.392;2023-12-14T05:34:23;101328.8;;;11.12;64.75098
59987;BME280;46181;51.498;5.392;2023-12-14T05:38:53;101343;;;11.13;64.81055
59987;BME280;46181;51.498;5.392;2023-12-14T05:43:23;101352.3;;;11.13;64.83301
59987;BME280;46181;51.498;5.392;2023-12-14T05:47:53;101364.2;;;11.17;64.84961
59987;BME280;46181;51.498;5.392;2023-12-14T05:52:23;101381.9;;;11.17;64.7373
59987;BME280;46181;51.498;5.392;2023-12-14T05:56:53;101390.9;;;11.22;64.9248
59987;BME280;46181;51.498;5.392;2023-12-14T06:01:25;101403.1;;;11.21;64.85645
59987;BME280;46181;51.498;5.392;2023-12-14T06:05:53;101400.6;;;11.24;64.81543
59987;BME280;46181;51.498;5.392;2023-12-14T06:10:23;101405.5;;;11.27;64.84277
59987;BME280;46181;51.498;5.392;2023-12-14T06:14:53;101408.3;;;11.27;64.72949
59987;BME280;46181;51.498;5.392;2023-12-14T06:19:23;101412.1;;;11.27;64.74023
59987;BME280;46181;51.498;5.392;2023-12-14T06:23:53;101420.9;;;11.26;64.58105
59987;BME280;46181;51.498;5.392;2023-12-14T06:28:23;101430;;;11.21;64.6875
59987;BME280;46181;51.498;5.392;2023-12-14T06:32:53;101432.6;;;11.21;64.74316
59987;BME280;46181;51.498;5.392;2023-12-14T06:37:23;101440.3;;;11.23;64.78027
59987;BME280;46181;51.498;5.392;2023-12-14T06:41:55;101452.7;;;11.25;64.77246
59987;BME280;46181;51.498;5.392;2023-12-14T06:46:23;101456.9;;;11.26;64.71777
59987;BME280;46181;51.498;5.392;2023-12-14T06:50:53;101465.7;;;11.3;64.75684
59987;BME280;46181;51.498;5.392;2023-12-14T06:55:23;101463.8;;;11.24;64.46777
59987;BME280;46181;51.498;5.392;2023-12-14T06:59:53;101473.1;;;11.21;64.49609
59987;BME280;46181;51.498;5.392;2023-12-14T07:04:23;101485.1;;;11.21;64.65332
59987;BME280;46181;51.498;5.392;2023-12-14T07:08:53;101489.1;;;11.16;64.57813
59987;BME280;46181;51.498;5.392;2023-12-14T07:13:23;101498.7;;;11.12;64.52734
59987;BME280;46181;51.498;5.392;2023-12-14T07:17:53;101517.3;;;11.07;64.51953
59987;BME280;46181;51.498;5.392;2023-12-14T07:22:23;101530.2;;;11.05;64.78711
59987;BME280;46181;51.498;5.392;2023-12-14T07:26:53;101538;;;11.04;64.67285
59987;BME280;46181;51.498;5.392;2023-12-14T07:31:23;101550.5;;;11.04;64.53809
59987;BME280;46181;51.498;5.392;2023-12-14T07:35:53;101556.1;;;11;64.55371
59987;BME280;46181;51.498;5.392;2023-12-14T07:40:23;101559.4;;;10.98;64.71973
59987;BME280;46181;51.498;5.392;2023-12-14T07:44:53;101563.5;;;11.05;64.81055
59987;BME280;46181;51.498;5.392;2023-12-14T07:49:23;101569.3;;;11.05;64.64258
59987;BME280;46181;51.498;5.392;2023-12-14T07:53:53;101575.3;;;11.03;64.55957
59987;BME280;46181;51.498;5.392;2023-12-14T07:58:23;101587;;;11.02;64.62598
59987;BME280;46181;51.498;5.392;2023-12-14T08:02:53;101595.5;;;11.02;64.5918
59987;BME280;46181;51.498;5.392;2023-12-14T08:07:23;101603;;;11.01;64.52344
59987;BME280;46181;51.498;5.392;2023-12-14T08:11:53;101605.6;;;11.04;64.65039
59987;BME280;46181;51.498;5.392;2023-12-14T08:16:23;101609.7;;;11.04;64.51563
59987;BME280;46181;51.498;5.392;2023-12-14T08:20:53;101615.8;;;11.02;64.54688
59987;BME280;46181;51.498;5.392;2023-12-14T08:25:24;101631.6;;;11.04;64.58301
59987;BME280;46181;51.498;5.392;2023-12-14T08:29:53;101643.6;;;11.03;64.44824
59987;BME280;46181;51.498;5.392;2023-12-14T08:34:23;101651.4;;;11.05;64.4834
59987;BME280;46181;51.498;5.392;2023-12-14T08:38:53;101653;;;11.05;64.42676
59987;BME280;46181;51.498;5.392;2023-12-14T08:43:23;101666.5;;;11.04;64.41406
59987;BME280;46181;51.498;5.392;2023-12-14T08:47:53;101680.2;;;11.09;64.51074
59987;BME280;46181;51.498;5.392;2023-12-14T08:52:23;101685.5;;;11.07;64.27246
59987;BME280;46181;51.498;5.392;2023-12-14T08:56:53;101675.8;;;11.03;64.26855
59987;BME280;46181;51.498;5.392;2023-12-14T09:01:27;101680.1;;;11.02;64.44434
59987;BME280;46181;51.498;5.392;2023-12-14T09:05:53;101683.4;;;11.09;64.26367
59987;BME280;46181;51.498;5.392;2023-12-14T09:10:23;101698.9;;;11.05;64.22461
59987;BME280;46181;51.498;5.392;2023-12-14T09:14:53;101714.6;;;11.09;64.27539
59987;BME280;46181;51.498;5.392;2023-12-14T09:19:23;101723.6;;;11.09;64.17383
59987;BME280;46181;51.498;5.392;2023-12-14T09:23:53;101740.2;;;11.07;63.97949
59987;BME280;46181;51.498;5.392;2023-12-14T09:28:23;101744;;;11.05;64.05566
59987;BME280;46181;51.498;5.392;2023-12-14T09:32:53;101758.5;;;11.09;64.18457
59987;BME280;46181;51.498;5.392;2023-12-14T09:37:23;101767.2;;;11.17;64.21973
59987;BME280;46181;51.498;5.392;2023-12-14T09:41:53;101771.8;;;11.19;63.95313
59987;BME280;46181;51.498;5.392;2023-12-14T09:46:24;101776.6;;;11.24;64.01563
59987;BME280;46181;51.498;5.392;2023-12-14T09:50:53;101788;;;11.27;63.81738
59987;BME280;46181;51.498;5.392;2023-12-14T09:55:23;101796.5;;;11.32;63.91504
59987;BME280;46181;51.498;5.392;2023-12-14T09:59:59;101803.5;;;11.33;63.76074
59987;BME280;46181;51.498;5.392;2023-12-14T10:04:24;101811.3;;;11.38;63.64355
59987;BME280;46181;51.498;5.392;2023-12-14T10:09:02;101820.1;;;11.3;63.64258
59987;BME280;46181;51.498;5.392;2023-12-14T10:13:35;101828.9;;;11.37;63.46191
59987;BME280;46181;51.498;5.392;2023-12-14T10:17:54;101834.4;;;11.38;63.46191
59987;BME280;46181;51.498;5.392;2023-12-14T10:22:23;101828.9;;;11.28;63.4248
59987;BME280;46181;51.498;5.392;2023-12-14T10:26:53;101841.3;;;11.24;63.43164
59987;BME280;46181;51.498;5.392;2023-12-14T10:31:23;101850.5;;;11.22;63.46191
59987;BME280;46181;51.498;5.392;2023-12-14T10:35:53;101849.2;;;11.26;63.52441
59987;BME280;46181;51.498;5.392;2023-12-14T10:40:23;101847.4;;;11.27;63.40137
59987;BME280;46181;51.498;5.392;2023-12-14T10:44:54;101855.6;;;11.28;63.39258
59987;BME280;46181;51.498;5.392;2023-12-14T10:49:24;101856.7;;;11.22;63.13574
59987;BME280;46181;51.498;5.392;2023-12-14T10:53:53;101855.1;;;11.17;63.27441
59987;BME280;46181;51.498;5.392;2023-12-14T10:58:23;101877.8;;;11.21;63.3252
59987;BME280;46181;51.498;5.392;2023-12-14T11:02:54;101874.2;;;11.18;63.20801
59987;BME280;46181;51.498;5.392;2023-12-14T11:12:04;101871.5;;;11.11;63.23242
59987;BME280;46181;51.498;5.392;2023-12-14T11:16:23;101878.4;;;11.12;63.15332
59987;BME280;46181;51.498;5.392;2023-12-14T11:21:01;101889.1;;;10.98;63.31543
59987;BME280;46181;51.498;5.392;2023-12-14T11:25:23;101897.8;;;11.08;63.40723
59987;BME280;46181;51.498;5.392;2023-12-14T11:29:53;101908.7;;;11.18;63.56836
59987;BME280;46181;51.498;5.392;2023-12-14T11:34:24;101918.3;;;11.3;63.20313
59987;BME280;46181;51.498;5.392;2023-12-14T11:38:53;101921.2;;;11.42;63.08496
59987;BME280;46181;51.498;5.392;2023-12-14T11:43:23;101919.8;;;11.45;62.83008
59987;BME280;46181;51.498;5.392;2023-12-14T11:47:53;101915.1;;;11.56;62.93555
59987;BME280;46181;51.498;5.392;2023-12-14T11:52:23;101912.8;;;11.66;62.74805
59987;BME280;46181;51.498;5.392;2023-12-14T11:57:01;101908.6;;;11.73;62.86035
59987;BME280;46181;51.498;5.392;2023-12-14T12:01:24;101911.8;;;11.85;62.61914
59987;BME280;46181;51.498;5.392;2023-12-14T12:05:54;101912.5;;;11.89;62.46484
59987;BME280;46181;51.498;5.392;2023-12-14T12:10:24;101918.6;;;11.94;62.26953
59987;BME280;46181;51.498;5.392;2023-12-14T12:14:53;101916.8;;;11.91;62.20801
59987;BME280;46181;51.498;5.392;2023-12-14T12:19:23;101916;;;11.86;62.14551
59987;BME280;46181;51.498;5.392;2023-12-14T12:23:53;101920;;;11.83;62.10742
59987;BME280;46181;51.498;5.392;2023-12-14T12:28:23;101919;;;11.77;62.17773
59987;BME280;46181;51.498;5.392;2023-12-14T12:32:53;101928.5;;;11.76;62.24414
59987;BME280;46181;51.498;5.392;2023-12-14T12:37:23;101940.7;;;11.73;62.07129
59987;BME280;46181;51.498;5.392;2023-12-14T12:41:53;101950.3;;;11.65;62.12695
59987;BME280;46181;51.498;5.392;2023-12-14T12:46:23;101956.6;;;11.64;62.0459
59987;BME280;46181;51.498;5.392;2023-12-14T12:50:53;101953.5;;;11.6;61.98438
59987;BME280;46181;51.498;5.392;2023-12-14T12:55:24;101953.5;;;11.63;62.06738
59987;BME280;46181;51.498;5.392;2023-12-14T12:59:53;101952;;;11.69;62.10938
59987;BME280;46181;51.498;5.392;2023-12-14T13:04:30;101954.8;;;11.73;62.29688
59987;BME280;46181;51.498;5.392;2023-12-14T13:08:53;101957.5;;;11.84;62.0752
59987;BME280;46181;51.498;5.392;2023-12-14T13:13:23;101966.3;;;11.89;62.04785
59987;BME280;46181;51.498;5.392;2023-12-14T13:17:53;101977.4;;;11.86;61.67188
59987;BME280;46181;51.498;5.392;2023-12-14T13:22:23;101984;;;11.84;61.79297
59987;BME280;46181;51.498;5.392;2023-12-14T13:26:53;101993.1;;;11.86;61.85254
59987;BME280;46181;51.498;5.392;2023-12-14T13:31:23;101985.8;;;11.88;61.7207
59987;BME280;46181;51.498;5.392;2023-12-14T13:35:53;101993.8;;;11.92;61.79395
59987;BME280;46181;51.498;5.392;2023-12-14T13:40:23;102000.6;;;11.98;61.81348
59987;BME280;46181;51.498;5.392;2023-12-14T13:44:53;102011.9;;;12.06;61.72266
59987;BME280;46181;51.498;5.392;2023-12-14T13:49:23;102015.4;;;12.09;61.54688
59987;BME280;46181;51.498;5.392;2023-12-14T13:53:53;102025.8;;;12.11;61.60547
59987;BME280;46181;51.498;5.392;2023-12-14T13:58:23;102025.3;;;12.18;61.63672
59987;BME280;46181;51.498;5.392;2023-12-14T14:02:53;102021.9;;;12.23;61.50781
59987;BME280;46181;51.498;5.392;2023-12-14T14:07:23;102031.4;;;12.29;61.40527
59987;BME280;46181;51.498;5.392;2023-12-14T14:11:53;102035.6;;;12.32;61.30762
59987;BME280;46181;51.498;5.392;2023-12-14T14:16:23;102042.5;;;12.23;61.18164
59987;BME280;46181;51.498;5.392;2023-12-14T14:20:53;102048.7;;;12.16;61.36426
59987;BME280;46181;51.498;5.392;2023-12-14T14:25:23;102059.9;;;12.16;61.43262
59987;BME280;46181;51.498;5.392;2023-12-14T14:29:53;102070.5;;;12.17;61.44434
59987;BME280;46181;51.498;5.392;2023-12-14T14:34:23;102075.1;;;12.12;61.38086
59987;BME280;46181;51.498;5.392;2023-12-14T14:38:53;102081.9;;;12.08;61.39746
59987;BME280;46181;51.498;5.392;2023-12-14T14:43:23;102094.3;;;12.08;61.44238
59987;BME280;46181;51.498;5.392;2023-12-14T14:47:53;102102.3;;;12.07;61.5332
59987;BME280;46181;51.498;5.392;2023-12-14T14:52:23;102106.2;;;12.09;61.53516
59987;BME280;46181;51.498;5.392;2023-12-14T14:56:53;102114.5;;;12.09;61.52441
59987;BME280;46181;51.498;5.392;2023-12-14T15:01:23;102121.3;;;12.08;61.53418
59987;BME280;46181;51.498;5.392;2023-12-14T15:05:53;102115.4;;;12.06;61.47363
59987;BME280;46181;51.498;5.392;2023-12-14T15:10:23;102118.3;;;12.02;61.45801
59987;BME280;46181;51.498;5.392;2023-12-14T15:14:53;102129.9;;;12.02;61.53516
59987;BME280;46181;51.498;5.392;2023-12-14T15:19:23;102137.9;;;12.02;61.55957
59987;BME280;46181;51.498;5.392;2023-12-14T15:23:53;102149.5;;;11.99;61.55469
59987;BME280;46181;51.498;5.392;2023-12-14T15:28:23;102140.1;;;11.95;61.45801
59987;BME280;46181;51.498;5.392;2023-12-14T15:32:53;102148.6;;;11.92;61.56641
59987;BME280;46181;51.498;5.392;2023-12-14T15:37:23;102152.6;;;11.89;61.59668
59987;BME280;46181;51.498;5.392;2023-12-14T15:41:53;102152.2;;;11.87;61.61719
59987;BME280;46181;51.498;5.392;2023-12-14T15:46:23;102160.4;;;11.83;61.63379
59987;BME280;46181;51.498;5.392;2023-12-14T15:50:53;102155.6;;;11.79;61.68457
59987;BME280;46181;51.498;5.392;2023-12-14T15:55:24;102177;;;11.73;61.6543
59987;BME280;46181;51.498;5.392;2023-12-14T15:59:53;102183.7;;;11.58;61.54199
59987;BME280;46181;51.498;5.392;2023-12-14T16:04:23;102193.7;;;11.38;61.68359
59987;BME280;46181;51.498;5.392;2023-12-14T16:08:53;102201.3;;;11.22;61.95313
59987;BME280;46181;51.498;5.392;2023-12-14T16:13:23;102214.1;;;11.13;62.11914
59987;BME280;46181;51.498;5.392;2023-12-14T16:17:53;102218.1;;;11.03;62.28711
59987;BME280;46181;51.498;5.392;2023-12-14T16:22:23;102223.6;;;10.96;62.34375
59987;BME280;46181;51.498;5.392;2023-12-14T16:26:53;102226.8;;;10.91;62.38086
59987;BME280;46181;51.498;5.392;2023-12-14T16:31:23;102230;;;10.87;62.41016
59987;BME280;46181;51.498;5.392;2023-12-14T16:35:53;102233.7;;;10.87;62.52246
59987;BME280;46181;51.498;5.392;2023-12-14T16:40:24;102235.8;;;10.91;62.41504
59987;BME280;46181;51.498;5.392;2023-12-14T16:44:53;102239.4;;;10.95;62.42188
59987;BME280;46181;51.498;5.392;2023-12-14T16:49:23;102241.2;;;11;62.41797
59987;BME280;46181;51.498;5.392;2023-12-14T16:53:53;102247.9;;;11.02;62.26172
59987;BME280;46181;51.498;5.392;2023-12-14T16:58:23;102252.7;;;11.04;62.27637
59987;BME280;46181;51.498;5.392;2023-12-14T17:02:53;102258.4;;;11.05;62.12012
59987;BME280;46181;51.498;5.392;2023-12-14T17:07:23;102259.1;;;11.05;62.09961
59987;BME280;46181;51.498;5.392;2023-12-14T17:11:54;102263.7;;;11.05;62.11035
59987;BME280;46181;51.498;5.392;2023-12-14T17:16:28;102268.1;;;11.06;62.2002
59987;BME280;46181;51.498;5.392;2023-12-14T17:20:53;102275.2;;;11.13;62.19824
59987;BME280;46181;51.498;5.392;2023-12-14T17:25:23;102282;;;11.14;62.20117
59987;BME280;46181;51.498;5.392;2023-12-14T17:29:53;102291.6;;;11.15;62.12305
59987;BME280;46181;51.498;5.392;2023-12-14T17:34:23;102295.3;;;11.18;62.06055
59987;BME280;46181;51.498;5.392;2023-12-14T17:38:53;102291.9;;;11.17;62.05859
59987;BME280;46181;51.498;5.392;2023-12-14T17:43:23;102291.6;;;11.19;62.11816
59987;BME280;46181;51.498;5.392;2023-12-14T17:47:53;102291.2;;;11.2;62.16309
59987;BME280;46181;51.498;5.392;2023-12-14T17:52:23;102293.5;;;11.19;62.15234
59987;BME280;46181;51.498;5.392;2023-12-14T17:56:53;102297.9;;;11.19;62.12988
59987;BME280;46181;51.498;5.392;2023-12-14T18:01:24;102305.1;;;11.17;62.0918
59987;BME280;46181;51.498;5.392;2023-12-14T18:05:53;102297.6;;;11.12;62.09668
59987;BME280;46181;51.498;5.392;2023-12-14T18:10:24;102304.5;;;11.12;62.16309
59987;BME280;46181;51.498;5.392;2023-12-14T18:14:53;102307.2;;;11.08;62.27051
59987;BME280;46181;51.498;5.392;2023-12-14T18:19:23;102307.9;;;11.05;62.32422
59987;BME280;46181;51.498;5.392;2023-12-14T18:23:53;102321.8;;;11.05;62.36816
59987;BME280;46181;51.498;5.392;2023-12-14T18:28:23;102321.8;;;11.04;62.43457
59987;BME280;46181;51.498;5.392;2023-12-14T18:32:53;102333.1;;;11;62.47461
59987;BME280;46181;51.498;5.392;2023-12-14T18:37:23;102346.9;;;10.97;62.51367
59987;BME280;46181;51.498;5.392;2023-12-14T18:41:53;102354.1;;;10.97;62.60449
59987;BME280;46181;51.498;5.392;2023-12-14T18:46:23;102361.7;;;10.97;62.57031
59987;BME280;46181;51.498;5.392;2023-12-14T18:50:53;102364.4;;;10.95;62.58984
59987;BME280;46181;51.498;5.392;2023-12-14T18:55:23;102369;;;10.95;62.63477
59987;BME280;46181;51.498;5.392;2023-12-14T18:59:53;102375.2;;;10.96;62.66992
59987;BME280;46181;51.498;5.392;2023-12-14T19:04:23;102385.4;;;10.94;62.73535
59987;BME280;46181;51.498;5.392;2023-12-14T19:08:53;102387.5;;;10.94;62.76855
59987;BME280;46181;51.498;5.392;2023-12-14T19:13:23;102389.3;;;10.95;62.80371
59987;BME280;46181;51.498;5.392;2023-12-14T19:17:54;102397;;;10.95;62.84863
59987;BME280;46181;51.498;5.392;2023-12-14T19:22:23;102401.8;;;10.93;62.68848
59987;BME280;46181;51.498;5.392;2023-12-14T19:26:55;102411.9;;;10.9;62.75293
59987;BME280;46181;51.498;5.392;2023-12-14T19:31:24;102420.6;;;10.88;62.83984
59987;BME280;46181;51.498;5.392;2023-12-14T19:35:53;102424.3;;;10.86;62.88086
59987;BME280;46181;51.498;5.392;2023-12-14T19:40:24;102428.8;;;10.83;62.89941
59987;BME280;46181;51.498;5.392;2023-12-14T19:44:53;102420.8;;;10.81;62.94043
59987;BME280;46181;51.498;5.392;2023-12-14T19:49:23;102444.1;;;10.79;63.01855
59987;BME280;46181;51.498;5.392;2023-12-14T19:53:53;102443.3;;;10.79;63.06152
59987;BME280;46181;51.498;5.392;2023-12-14T19:58:23;102452.2;;;10.78;63.09473
59987;BME280;46181;51.498;5.392;2023-12-14T20:02:53;102455.8;;;10.76;63.11426
59987;BME280;46181;51.498;5.392;2023-12-14T20:07:23;102449.2;;;10.76;63.16895
59987;BME280;46181;51.498;5.392;2023-12-14T20:11:53;102462;;;10.75;63.14648
59987;BME280;46181;51.498;5.392;2023-12-14T20:16:23;102474;;;10.74;63.12109
59987;BME280;46181;51.498;5.392;2023-12-14T20:20:53;102469.4;;;10.7;63.12793
59987;BME280;46181;51.498;5.392;2023-12-14T20:25:23;102477.8;;;10.63;63.10547
59987;BME280;46181;51.498;5.392;2023-12-14T20:29:53;102478.5;;;10.56;63.19629
59987;BME280;46181;51.498;5.392;2023-12-14T20:34:23;102484.8;;;10.51;63.4375
59987;BME280;46181;51.498;5.392;2023-12-14T20:38:53;102484.3;;;10.56;63.52344
59987;BME280;46181;51.498;5.392;2023-12-14T20:43:23;102493.3;;;10.64;63.44434
59987;BME280;46181;51.498;5.392;2023-12-14T20:47:53;102500.7;;;10.72;63.43359
59987;BME280;46181;51.498;5.392;2023-12-14T20:52:23;102499.8;;;10.82;63.42578
59987;BME280;46181;51.498;5.392;2023-12-14T20:56:53;102511.1;;;10.92;63.37207
59987;BME280;46181;51.498;5.392;2023-12-14T21:01:23;102519.9;;;11.01;63.24023
59987;BME280;46181;51.498;5.392;2023-12-14T21:05:53;102522.3;;;11.08;63.13867
59987;BME280;46181;51.498;5.392;2023-12-14T21:10:23;102532;;;11.16;63.08105
59987;BME280;46181;51.498;5.392;2023-12-14T21:14:54;102532.5;;;11.2;62.97559
59987;BME280;46181;51.498;5.392;2023-12-14T21:19:27;102550.7;;;11.22;63.0459
59987;BME280;46181;51.498;5.392;2023-12-14T21:23:53;102548.9;;;11.27;63.01953
59987;BME280;46181;51.498;5.392;2023-12-14T21:28:23;102541.8;;;11.29;62.99902
59987;BME280;46181;51.498;5.392;2023-12-14T21:32:54;102535;;;11.32;63.03711
59987;BME280;46181;51.498;5.392;2023-12-14T21:37:23;102543.1;;;11.39;63.03516
59987;BME280;46181;51.498;5.392;2023-12-14T21:41:54;102533.2;;;11.4;62.9248
59987;BME280;46181;51.498;5.392;2023-12-14T21:46:23;102535.7;;;11.36;62.86328
59987;BME280;46181;51.498;5.392;2023-12-14T21:50:53;102532.8;;;11.27;62.88477
59987;BME280;46181;51.498;5.392;2023-12-14T21:55:23;102534.8;;;11.22;63.0459
59987;BME280;46181;51.498;5.392;2023-12-14T21:59:53;102539.5;;;11.2;63.07617
59987;BME280;46181;51.498;5.392;2023-12-14T22:04:23;102537;;;11.2;63.1543
59987;BME280;46181;51.498;5.392;2023-12-14T22:08:54;102532.3;;;11.2;63.08789
59987;BME280;46181;51.498;5.392;2023-12-14T22:13:23;102531.6;;;11.21;63.10059
59987;BME280;46181;51.498;5.392;2023-12-14T22:17:53;102542;;;11.23;63.11426
59987;BME280;46181;51.498;5.392;2023-12-14T22:22:23;102545.5;;;11.23;63.11426
59987;BME280;46181;51.498;5.392;2023-12-14T22:26:53;102557.8;;;11.22;63.1582
59987;BME280;46181;51.498;5.392;2023-12-14T22:31:23;102573;;;11.25;63.13965
59987;BME280;46181;51.498;5.392;2023-12-14T22:35:54;102583.3;;;11.28;63.20117
59987;BME280;46181;51.498;5.392;2023-12-14T22:40:24;102578.5;;;11.33;63.13965
59987;BME280;46181;51.498;5.392;2023-12-14T22:44:54;102580;;;11.37;63.14551
59987;BME280;46181;51.498;5.392;2023-12-14T22:49:23;102587.8;;;11.41;63.15137
59987;BME280;46181;51.498;5.392;2023-12-14T22:53:54;102597.8;;;11.43;63.10742
59987;BME280;46181;51.498;5.392;2023-12-14T22:58:23;102610.6;;;11.49;63.0166
59987;BME280;46181;51.498;5.392;2023-12-14T23:02:54;102618.7;;;11.5;63.06348
59987;BME280;46181;51.498;5.392;2023-12-14T23:07:23;102616.6;;;11.53;63.05762